sensor_id;sensor_type;location;lat;lon;timestamp;P1;durP1;ratioP1;P2;durP2;ratioP2
7969;SDS011;4030;52.362;9.206;2022-12-29T00:01:55;2.43;;;1.73;;
7969;SDS011;4030;52.362;9.206;2022-12-29T00:04:21;2.17;;;1.50;;
7969;SDS011;4030;52.362;9.206;2022-12-29T00:06:47;2.53;;;1.80;;
7969;SDS011;4030;52.362;9.206;2022-12-29T00:09:13;2.30;;;1.80;;
7969;SDS011;4030;52.362;9.206;2022-12-29T00:11:40;2.57;;;1.60;;
7969;SDS011;4030;52.362;9.206;2022-12-29T00:14:08;2.53;;;1.67;;
7969;SDS011;4030;52.362;9.206;2022-12-29T00:16:53;2.40;;;1.70;;
7969;SDS011;4030;52.362;9.206;2022-12-29T00:19:19;1.80;;;1.70;;
7969;SDS011;4030;52.362;9.206;2022-12-29T00:22:04;1.42;;;1.33;;
7969;SDS011;4030;52.362;9.206;2022-12-29T00:24:48;2.03;;;1.40;;
7969;SDS011;4030;52.362;9.206;2022-12-29T00:27:26;1.73;;;1.47;;
7969;SDS011;4030;52.362;9.206;2022-12-29T00:30:12;1.60;;;1.20;;
7969;SDS011;4030;52.362;9.206;2022-12-29T00:33:00;1.63;;;1.40;;
7969;SDS011;4030;52.362;9.206;2022-12-29T00:35:50;1.65;;;1.48;;
7969;SDS011;4030;52.362;9.206;2022-12-29T00:38:20;1.70;;;1.40;;
7969;SDS011;4030;52.362;9.206;2022-12-29T00:41:05;2.47;;;1.33;;
7969;SDS011;4030;52.362;9.206;2022-12-29T00:43:49;1.00;;;1.00;;
7969;SDS011;4030;52.362;9.206;2022-12-29T00:46:31;1.30;;;1.10;;
7969;SDS011;4030;52.362;9.206;2022-12-29T00:49:02;1.48;;;1.08;;
7969;SDS011;4030;52.362;9.206;2022-12-29T00:51:47;1.70;;;0.90;;
7969;SDS011;4030;52.362;9.206;2022-12-29T00:54:13;1.17;;;1.07;;
7969;SDS011;4030;52.362;9.206;2022-12-29T00:56:40;1.23;;;1.00;;
7969;SDS011;4030;52.362;9.206;2022-12-29T00:59:06;1.27;;;1.00;;
7969;SDS011;4030;52.362;9.206;2022-12-29T01:01:35;1.00;;;0.90;;
7969;SDS011;4030;52.362;9.206;2022-12-29T01:04:02;0.90;;;0.83;;
7969;SDS011;4030;52.362;9.206;2022-12-29T01:06:28;0.90;;;0.80;;
7969;SDS011;4030;52.362;9.206;2022-12-29T01:08:54;2.13;;;1.00;;
7969;SDS011;4030;52.362;9.206;2022-12-29T01:11:38;0.93;;;0.90;;
7969;SDS011;4030;52.362;9.206;2022-12-29T01:14:05;0.90;;;0.90;;
7969;SDS011;4030;52.362;9.206;2022-12-29T01:16:31;0.90;;;0.83;;
7969;SDS011;4030;52.362;9.206;2022-12-29T01:18:58;0.80;;;0.80;;
7969;SDS011;4030;52.362;9.206;2022-12-29T01:21:24;0.80;;;0.80;;
7969;SDS011;4030;52.362;9.206;2022-12-29T01:23:50;0.70;;;0.70;;
7969;SDS011;4030;52.362;9.206;2022-12-29T01:26:16;1.20;;;0.90;;
7969;SDS011;4030;52.362;9.206;2022-12-29T01:28:43;0.80;;;0.80;;
7969;SDS011;4030;52.362;9.206;2022-12-29T01:31:10;0.63;;;0.63;;
7969;SDS011;4030;52.362;9.206;2022-12-29T01:33:38;0.80;;;0.75;;
7969;SDS011;4030;52.362;9.206;2022-12-29T01:36:06;0.70;;;0.70;;
7969;SDS011;4030;52.362;9.206;2022-12-29T01:38:35;1.40;;;0.90;;
7969;SDS011;4030;52.362;9.206;2022-12-29T01:41:03;0.90;;;0.80;;
7969;SDS011;4030;52.362;9.206;2022-12-29T01:51:33;0.60;;;0.60;;
7969;SDS011;4030;52.362;9.206;2022-12-29T01:54:04;0.80;;;0.80;;
7969;SDS011;4030;52.362;9.206;2022-12-29T01:56:35;0.87;;;0.70;;
7969;SDS011;4030;52.362;9.206;2022-12-29T01:59:03;0.80;;;0.80;;
7969;SDS011;4030;52.362;9.206;2022-12-29T02:01:36;0.60;;;0.60;;
7969;SDS011;4030;52.362;9.206;2022-12-29T02:04:02;0.68;;;0.68;;
7969;SDS011;4030;52.362;9.206;2022-12-29T02:06:30;0.70;;;0.70;;
7969;SDS011;4030;52.362;9.206;2022-12-29T02:09:02;0.50;;;0.50;;
7969;SDS011;4030;52.362;9.206;2022-12-29T02:11:28;0.60;;;0.60;;
7969;SDS011;4030;52.362;9.206;2022-12-29T02:13:56;0.95;;;0.68;;
7969;SDS011;4030;52.362;9.206;2022-12-29T02:16:27;0.68;;;0.60;;
7969;SDS011;4030;52.362;9.206;2022-12-29T02:19:32;0.75;;;0.75;;
7969;SDS011;4030;52.362;9.206;2022-12-29T02:25:24;0.70;;;0.70;;
7969;SDS011;4030;52.362;9.206;2022-12-29T02:31:51;0.60;;;0.60;;
7969;SDS011;4030;52.362;9.206;2022-12-29T02:34:40;0.60;;;0.60;;
7969;SDS011;4030;52.362;9.206;2022-12-29T02:37:38;0.60;;;0.60;;
7969;SDS011;4030;52.362;9.206;2022-12-29T02:41:12;0.55;;;0.55;;
7969;SDS011;4030;52.362;9.206;2022-12-29T02:43:44;0.60;;;0.60;;
7969;SDS011;4030;52.362;9.206;2022-12-29T02:46:43;0.50;;;0.50;;
7969;SDS011;4030;52.362;9.206;2022-12-29T02:49:20;0.50;;;0.50;;
7969;SDS011;4030;52.362;9.206;2022-12-29T02:54:32;0.70;;;0.60;;
7969;SDS011;4030;52.362;9.206;2022-12-29T02:59:50;0.50;;;0.50;;
7969;SDS011;4030;52.362;9.206;2022-12-29T03:13:28;0.80;;;0.60;;
7969;SDS011;4030;52.362;9.206;2022-12-29T03:16:24;0.50;;;0.50;;
7969;SDS011;4030;52.362;9.206;2022-12-29T03:18:56;0.55;;;0.55;;
7969;SDS011;4030;52.362;9.206;2022-12-29T03:21:37;0.60;;;0.60;;
7969;SDS011;4030;52.362;9.206;2022-12-29T03:24:26;0.50;;;0.50;;
7969;SDS011;4030;52.362;9.206;2022-12-29T03:26:56;0.77;;;0.60;;
7969;SDS011;4030;52.362;9.206;2022-12-29T03:29:24;0.50;;;0.50;;
7969;SDS011;4030;52.362;9.206;2022-12-29T03:31:54;0.60;;;0.55;;
7969;SDS011;4030;52.362;9.206;2022-12-29T03:34:22;0.95;;;0.55;;
7969;SDS011;4030;52.362;9.206;2022-12-29T03:36:53;0.77;;;0.60;;
7969;SDS011;4030;52.362;9.206;2022-12-29T03:39:25;0.50;;;0.50;;
7969;SDS011;4030;52.362;9.206;2022-12-29T03:41:55;0.50;;;0.50;;
7969;SDS011;4030;52.362;9.206;2022-12-29T03:44:37;0.68;;;0.50;;
7969;SDS011;4030;52.362;9.206;2022-12-29T03:47:06;0.47;;;0.47;;
7969;SDS011;4030;52.362;9.206;2022-12-29T03:49:33;0.60;;;0.60;;
7969;SDS011;4030;52.362;9.206;2022-12-29T03:51:58;0.50;;;0.50;;
7969;SDS011;4030;52.362;9.206;2022-12-29T03:54:24;1.38;;;0.75;;
7969;SDS011;4030;52.362;9.206;2022-12-29T03:56:50;0.50;;;0.50;;
7969;SDS011;4030;52.362;9.206;2022-12-29T03:59:16;1.00;;;0.60;;
7969;SDS011;4030;52.362;9.206;2022-12-29T04:01:41;0.60;;;0.60;;
7969;SDS011;4030;52.362;9.206;2022-12-29T04:04:07;0.50;;;0.50;;
7969;SDS011;4030;52.362;9.206;2022-12-29T04:06:33;0.57;;;0.50;;
7969;SDS011;4030;52.362;9.206;2022-12-29T04:08:59;0.77;;;0.40;;
7969;SDS011;4030;52.362;9.206;2022-12-29T04:11:25;0.80;;;0.57;;
7969;SDS011;4030;52.362;9.206;2022-12-29T04:13:51;0.45;;;0.40;;
7969;SDS011;4030;52.362;9.206;2022-12-29T04:16:17;1.55;;;0.50;;
7969;SDS011;4030;52.362;9.206;2022-12-29T04:18:43;0.43;;;0.40;;
7969;SDS011;4030;52.362;9.206;2022-12-29T04:21:09;0.60;;;0.50;;
7969;SDS011;4030;52.362;9.206;2022-12-29T04:23:36;0.50;;;0.50;;
7969;SDS011;4030;52.362;9.206;2022-12-29T04:26:03;0.95;;;0.43;;
7969;SDS011;4030;52.362;9.206;2022-12-29T04:28:32;0.43;;;0.40;;
7969;SDS011;4030;52.362;9.206;2022-12-29T04:30:58;0.50;;;0.50;;
7969;SDS011;4030;52.362;9.206;2022-12-29T04:33:24;1.52;;;0.60;;
7969;SDS011;4030;52.362;9.206;2022-12-29T04:35:50;0.60;;;0.57;;
7969;SDS011;4030;52.362;9.206;2022-12-29T04:38:19;0.80;;;0.60;;
7969;SDS011;4030;52.362;9.206;2022-12-29T04:40:45;0.55;;;0.45;;
7969;SDS011;4030;52.362;9.206;2022-12-29T04:43:11;0.75;;;0.50;;
7969;SDS011;4030;52.362;9.206;2022-12-29T04:45:38;0.70;;;0.60;;
7969;SDS011;4030;52.362;9.206;2022-12-29T04:48:12;0.50;;;0.50;;
7969;SDS011;4030;52.362;9.206;2022-12-29T04:50:38;0.60;;;0.60;;
7969;SDS011;4030;52.362;9.206;2022-12-29T04:53:05;0.82;;;0.57;;
7969;SDS011;4030;52.362;9.206;2022-12-29T04:55:30;0.70;;;0.60;;
7969;SDS011;4030;52.362;9.206;2022-12-29T04:57:56;1.60;;;0.68;;
7969;SDS011;4030;52.362;9.206;2022-12-29T05:00:23;1.75;;;0.60;;
7969;SDS011;4030;52.362;9.206;2022-12-29T05:02:49;0.40;;;0.40;;
7969;SDS011;4030;52.362;9.206;2022-12-29T05:05:15;0.68;;;0.52;;
7969;SDS011;4030;52.362;9.206;2022-12-29T05:07:41;1.00;;;0.65;;
7969;SDS011;4030;52.362;9.206;2022-12-29T05:10:07;0.75;;;0.60;;
7969;SDS011;4030;52.362;9.206;2022-12-29T05:12:34;1.40;;;0.50;;
7969;SDS011;4030;52.362;9.206;2022-12-29T05:15:01;0.65;;;0.43;;
7969;SDS011;4030;52.362;9.206;2022-12-29T05:17:28;0.82;;;0.52;;
7969;SDS011;4030;52.362;9.206;2022-12-29T05:19:54;0.65;;;0.50;;
7969;SDS011;4030;52.362;9.206;2022-12-29T05:22:20;0.80;;;0.47;;
7969;SDS011;4030;52.362;9.206;2022-12-29T05:24:46;0.45;;;0.45;;
7969;SDS011;4030;52.362;9.206;2022-12-29T05:27:12;0.65;;;0.55;;
7969;SDS011;4030;52.362;9.206;2022-12-29T05:29:37;0.90;;;0.60;;
7969;SDS011;4030;52.362;9.206;2022-12-29T05:32:03;0.40;;;0.40;;
7969;SDS011;4030;52.362;9.206;2022-12-29T05:34:29;0.50;;;0.50;;
7969;SDS011;4030;52.362;9.206;2022-12-29T05:36:55;0.88;;;0.60;;
7969;SDS011;4030;52.362;9.206;2022-12-29T05:39:22;0.43;;;0.30;;
7969;SDS011;4030;52.362;9.206;2022-12-29T05:41:48;0.50;;;0.50;;
7969;SDS011;4030;52.362;9.206;2022-12-29T05:44:14;0.68;;;0.50;;
7969;SDS011;4030;52.362;9.206;2022-12-29T05:46:40;0.50;;;0.50;;
7969;SDS011;4030;52.362;9.206;2022-12-29T05:49:06;0.60;;;0.50;;
7969;SDS011;4030;52.362;9.206;2022-12-29T05:51:32;0.50;;;0.50;;
7969;SDS011;4030;52.362;9.206;2022-12-29T05:53:58;0.50;;;0.50;;
7969;SDS011;4030;52.362;9.206;2022-12-29T05:56:24;0.60;;;0.60;;
7969;SDS011;4030;52.362;9.206;2022-12-29T05:58:50;1.08;;;0.47;;
7969;SDS011;4030;52.362;9.206;2022-12-29T06:01:16;0.50;;;0.50;;
7969;SDS011;4030;52.362;9.206;2022-12-29T06:03:42;0.40;;;0.40;;
7969;SDS011;4030;52.362;9.206;2022-12-29T06:06:08;0.70;;;0.60;;
7969;SDS011;4030;52.362;9.206;2022-12-29T06:08:34;0.70;;;0.50;;
7969;SDS011;4030;52.362;9.206;2022-12-29T06:11:00;1.05;;;0.60;;
7969;SDS011;4030;52.362;9.206;2022-12-29T06:13:26;2.58;;;0.60;;
7969;SDS011;4030;52.362;9.206;2022-12-29T06:15:52;0.65;;;0.40;;
7969;SDS011;4030;52.362;9.206;2022-12-29T06:18:18;0.63;;;0.60;;
7969;SDS011;4030;52.362;9.206;2022-12-29T06:20:45;0.63;;;0.60;;
7969;SDS011;4030;52.362;9.206;2022-12-29T06:23:11;0.50;;;0.50;;
7969;SDS011;4030;52.362;9.206;2022-12-29T06:25:38;0.50;;;0.50;;
7969;SDS011;4030;52.362;9.206;2022-12-29T06:28:03;0.93;;;0.50;;
7969;SDS011;4030;52.362;9.206;2022-12-29T06:30:32;1.67;;;0.50;;
7969;SDS011;4030;52.362;9.206;2022-12-29T06:32:58;0.52;;;0.52;;
7969;SDS011;4030;52.362;9.206;2022-12-29T06:35:24;0.50;;;0.50;;
7969;SDS011;4030;52.362;9.206;2022-12-29T06:37:50;0.52;;;0.52;;
7969;SDS011;4030;52.362;9.206;2022-12-29T06:40:16;0.50;;;0.50;;
7969;SDS011;4030;52.362;9.206;2022-12-29T06:42:42;0.43;;;0.43;;
7969;SDS011;4030;52.362;9.206;2022-12-29T06:45:07;0.50;;;0.50;;
7969;SDS011;4030;52.362;9.206;2022-12-29T06:47:34;0.63;;;0.60;;
7969;SDS011;4030;52.362;9.206;2022-12-29T06:50:00;1.23;;;0.70;;
7969;SDS011;4030;52.362;9.206;2022-12-29T06:52:26;1.38;;;0.50;;
7969;SDS011;4030;52.362;9.206;2022-12-29T06:54:53;1.60;;;0.70;;
7969;SDS011;4030;52.362;9.206;2022-12-29T06:57:19;0.93;;;0.50;;
7969;SDS011;4030;52.362;9.206;2022-12-29T06:59:46;2.03;;;0.60;;
7969;SDS011;4030;52.362;9.206;2022-12-29T07:02:12;0.60;;;0.60;;
7969;SDS011;4030;52.362;9.206;2022-12-29T07:04:44;0.85;;;0.70;;
7969;SDS011;4030;52.362;9.206;2022-12-29T07:07:10;0.98;;;0.60;;
7969;SDS011;4030;52.362;9.206;2022-12-29T07:09:36;0.80;;;0.70;;
7969;SDS011;4030;52.362;9.206;2022-12-29T07:12:02;1.45;;;0.60;;
7969;SDS011;4030;52.362;9.206;2022-12-29T07:14:28;0.85;;;0.70;;
7969;SDS011;4030;52.362;9.206;2022-12-29T07:16:54;0.63;;;0.50;;
7969;SDS011;4030;52.362;9.206;2022-12-29T07:19:20;1.33;;;0.40;;
7969;SDS011;4030;52.362;9.206;2022-12-29T07:21:46;0.80;;;0.40;;
7969;SDS011;4030;52.362;9.206;2022-12-29T07:24:12;0.73;;;0.50;;
7969;SDS011;4030;52.362;9.206;2022-12-29T07:26:38;1.60;;;0.50;;
7969;SDS011;4030;52.362;9.206;2022-12-29T07:29:04;1.27;;;0.50;;
7969;SDS011;4030;52.362;9.206;2022-12-29T07:31:30;0.65;;;0.45;;
7969;SDS011;4030;52.362;9.206;2022-12-29T07:33:56;0.55;;;0.50;;
7969;SDS011;4030;52.362;9.206;2022-12-29T07:36:22;0.93;;;0.50;;
7969;SDS011;4030;52.362;9.206;2022-12-29T07:38:49;1.02;;;0.47;;
7969;SDS011;4030;52.362;9.206;2022-12-29T07:41:15;0.35;;;0.30;;
7969;SDS011;4030;52.362;9.206;2022-12-29T07:43:41;1.13;;;0.60;;
7969;SDS011;4030;52.362;9.206;2022-12-29T07:46:07;0.98;;;0.47;;
7969;SDS011;4030;52.362;9.206;2022-12-29T07:48:34;0.88;;;0.60;;
7969;SDS011;4030;52.362;9.206;2022-12-29T07:51:00;0.70;;;0.50;;
7969;SDS011;4030;52.362;9.206;2022-12-29T07:53:26;0.75;;;0.55;;
7969;SDS011;4030;52.362;9.206;2022-12-29T07:55:52;1.65;;;0.60;;
7969;SDS011;4030;52.362;9.206;2022-12-29T07:58:18;0.40;;;0.40;;
7969;SDS011;4030;52.362;9.206;2022-12-29T08:00:44;1.00;;;0.57;;
7969;SDS011;4030;52.362;9.206;2022-12-29T08:03:10;0.75;;;0.60;;
7969;SDS011;4030;52.362;9.206;2022-12-29T08:05:36;1.00;;;0.80;;
7969;SDS011;4030;52.362;9.206;2022-12-29T08:08:02;0.60;;;0.50;;
7969;SDS011;4030;52.362;9.206;2022-12-29T08:10:28;0.57;;;0.57;;
7969;SDS011;4030;52.362;9.206;2022-12-29T08:12:54;1.08;;;0.63;;
7969;SDS011;4030;52.362;9.206;2022-12-29T08:15:19;1.02;;;0.40;;
7969;SDS011;4030;52.362;9.206;2022-12-29T08:17:45;0.75;;;0.50;;
7969;SDS011;4030;52.362;9.206;2022-12-29T08:20:11;1.02;;;0.50;;
7969;SDS011;4030;52.362;9.206;2022-12-29T08:22:37;0.60;;;0.50;;
7969;SDS011;4030;52.362;9.206;2022-12-29T08:25:02;0.85;;;0.60;;
7969;SDS011;4030;52.362;9.206;2022-12-29T08:27:29;1.38;;;0.60;;
7969;SDS011;4030;52.362;9.206;2022-12-29T08:29:54;1.52;;;0.68;;
7969;SDS011;4030;52.362;9.206;2022-12-29T08:32:20;0.63;;;0.60;;
7969;SDS011;4030;52.362;9.206;2022-12-29T08:34:46;2.97;;;0.88;;
7969;SDS011;4030;52.362;9.206;2022-12-29T08:37:12;1.15;;;0.80;;
7969;SDS011;4030;52.362;9.206;2022-12-29T08:39:38;0.65;;;0.60;;
7969;SDS011;4030;52.362;9.206;2022-12-29T08:42:04;2.92;;;0.90;;
7969;SDS011;4030;52.362;9.206;2022-12-29T08:44:31;1.85;;;0.85;;
7969;SDS011;4030;52.362;9.206;2022-12-29T08:46:56;1.33;;;0.70;;
7969;SDS011;4030;52.362;9.206;2022-12-29T08:49:22;1.58;;;0.70;;
7969;SDS011;4030;52.362;9.206;2022-12-29T08:51:49;2.42;;;0.88;;
7969;SDS011;4030;52.362;9.206;2022-12-29T08:54:15;1.35;;;0.80;;
7969;SDS011;4030;52.362;9.206;2022-12-29T08:56:41;2.15;;;0.88;;
7969;SDS011;4030;52.362;9.206;2022-12-29T08:59:07;1.20;;;0.80;;
7969;SDS011;4030;52.362;9.206;2022-12-29T09:01:33;2.50;;;0.80;;
7969;SDS011;4030;52.362;9.206;2022-12-29T09:04:01;2.88;;;0.80;;
7969;SDS011;4030;52.362;9.206;2022-12-29T09:06:27;2.85;;;1.00;;
7969;SDS011;4030;52.362;9.206;2022-12-29T09:08:53;3.88;;;1.20;;
7969;SDS011;4030;52.362;9.206;2022-12-29T09:11:21;2.30;;;0.90;;
7969;SDS011;4030;52.362;9.206;2022-12-29T09:13:48;3.78;;;1.30;;
7969;SDS011;4030;52.362;9.206;2022-12-29T09:16:14;1.98;;;0.90;;
7969;SDS011;4030;52.362;9.206;2022-12-29T09:18:41;3.28;;;0.90;;
7969;SDS011;4030;52.362;9.206;2022-12-29T09:21:09;2.72;;;1.20;;
7969;SDS011;4030;52.362;9.206;2022-12-29T09:23:36;2.50;;;0.90;;
7969;SDS011;4030;52.362;9.206;2022-12-29T09:26:03;2.05;;;0.80;;
7969;SDS011;4030;52.362;9.206;2022-12-29T09:28:29;3.45;;;0.85;;
7969;SDS011;4030;52.362;9.206;2022-12-29T09:30:55;3.30;;;1.02;;
7969;SDS011;4030;52.362;9.206;2022-12-29T09:33:22;1.83;;;0.93;;
7969;SDS011;4030;52.362;9.206;2022-12-29T09:35:52;3.20;;;0.85;;
7969;SDS011;4030;52.362;9.206;2022-12-29T09:38:23;2.88;;;0.90;;
7969;SDS011;4030;52.362;9.206;2022-12-29T09:40:51;2.17;;;0.85;;
7969;SDS011;4030;52.362;9.206;2022-12-29T09:43:35;2.33;;;0.88;;
7969;SDS011;4030;52.362;9.206;2022-12-29T09:46:14;5.82;;;1.25;;
7969;SDS011;4030;52.362;9.206;2022-12-29T09:48:49;2.58;;;0.90;;
7969;SDS011;4030;52.362;9.206;2022-12-29T09:51:37;2.80;;;0.90;;
7969;SDS011;4030;52.362;9.206;2022-12-29T09:57:02;1.52;;;0.77;;
7969;SDS011;4030;52.362;9.206;2022-12-29T09:59:41;2.42;;;1.10;;
7969;SDS011;4030;52.362;9.206;2022-12-29T10:13:36;2.17;;;0.98;;
7969;SDS011;4030;52.362;9.206;2022-12-29T10:16:47;1.42;;;0.93;;
7969;SDS011;4030;52.362;9.206;2022-12-29T10:20:03;2.17;;;0.90;;
7969;SDS011;4030;52.362;9.206;2022-12-29T10:25:46;1.35;;;0.80;;
7969;SDS011;4030;52.362;9.206;2022-12-29T10:28:56;2.10;;;0.82;;
7969;SDS011;4030;52.362;9.206;2022-12-29T10:31:35;1.75;;;0.95;;
7969;SDS011;4030;52.362;9.206;2022-12-29T10:34:36;1.25;;;0.70;;
7969;SDS011;4030;52.362;9.206;2022-12-29T10:40:00;1.20;;;0.85;;
7969;SDS011;4030;52.362;9.206;2022-12-29T10:42:40;2.33;;;1.10;;
7969;SDS011;4030;52.362;9.206;2022-12-29T10:45:14;2.40;;;1.00;;
7969;SDS011;4030;52.362;9.206;2022-12-29T10:47:48;2.15;;;0.88;;
7969;SDS011;4030;52.362;9.206;2022-12-29T10:50:20;3.08;;;0.95;;
7969;SDS011;4030;52.362;9.206;2022-12-29T10:52:48;1.70;;;0.88;;
7969;SDS011;4030;52.362;9.206;2022-12-29T10:55:19;1.90;;;0.90;;
7969;SDS011;4030;52.362;9.206;2022-12-29T10:57:53;2.17;;;1.10;;
7969;SDS011;4030;52.362;9.206;2022-12-29T11:00:22;2.13;;;0.85;;
7969;SDS011;4030;52.362;9.206;2022-12-29T11:05:49;2.13;;;1.10;;
7969;SDS011;4030;52.362;9.206;2022-12-29T11:08:26;2.28;;;0.90;;
7969;SDS011;4030;52.362;9.206;2022-12-29T11:10:59;2.40;;;1.15;;
7969;SDS011;4030;52.362;9.206;2022-12-29T11:13:30;1.70;;;0.90;;
7969;SDS011;4030;52.362;9.206;2022-12-29T11:15:58;2.55;;;1.17;;
7969;SDS011;4030;52.362;9.206;2022-12-29T11:21:28;2.28;;;1.10;;
7969;SDS011;4030;52.362;9.206;2022-12-29T11:24:18;1.95;;;1.00;;
7969;SDS011;4030;52.362;9.206;2022-12-29T11:26:55;2.75;;;1.40;;
7969;SDS011;4030;52.362;9.206;2022-12-29T11:29:40;2.72;;;1.40;;
7969;SDS011;4030;52.362;9.206;2022-12-29T11:32:27;2.35;;;1.30;;
7969;SDS011;4030;52.362;9.206;2022-12-29T11:34:57;2.92;;;1.40;;
7969;SDS011;4030;52.362;9.206;2022-12-29T11:37:26;2.10;;;1.23;;
7969;SDS011;4030;52.362;9.206;2022-12-29T11:45:05;2.38;;;1.30;;
7969;SDS011;4030;52.362;9.206;2022-12-29T11:47:57;2.25;;;1.30;;
7969;SDS011;4030;52.362;9.206;2022-12-29T11:50:28;2.70;;;1.25;;
7969;SDS011;4030;52.362;9.206;2022-12-29T11:53:01;1.70;;;0.98;;
7969;SDS011;4030;52.362;9.206;2022-12-29T11:55:31;2.63;;;1.20;;
7969;SDS011;4030;52.362;9.206;2022-12-29T11:57:58;2.47;;;1.17;;
7969;SDS011;4030;52.362;9.206;2022-12-29T12:00:28;2.63;;;1.27;;
7969;SDS011;4030;52.362;9.206;2022-12-29T12:02:58;2.03;;;1.20;;
7969;SDS011;4030;52.362;9.206;2022-12-29T12:06:01;3.55;;;1.10;;
7969;SDS011;4030;52.362;9.206;2022-12-29T12:11:07;3.33;;;1.23;;
7969;SDS011;4030;52.362;9.206;2022-12-29T12:16:27;2.85;;;1.10;;
7969;SDS011;4030;52.362;9.206;2022-12-29T12:19:15;2.72;;;1.40;;
7969;SDS011;4030;52.362;9.206;2022-12-29T12:21:54;2.20;;;1.10;;
7969;SDS011;4030;52.362;9.206;2022-12-29T12:30:15;1.65;;;1.08;;
7969;SDS011;4030;52.362;9.206;2022-12-29T12:32:55;3.28;;;1.20;;
7969;SDS011;4030;52.362;9.206;2022-12-29T12:41:56;2.70;;;1.20;;
7969;SDS011;4030;52.362;9.206;2022-12-29T12:44:35;2.40;;;1.10;;
7969;SDS011;4030;52.362;9.206;2022-12-29T12:47:27;3.60;;;1.10;;
7969;SDS011;4030;52.362;9.206;2022-12-29T12:55:58;2.95;;;1.23;;
7969;SDS011;4030;52.362;9.206;2022-12-29T13:01:15;3.63;;;1.25;;
7969;SDS011;4030;52.362;9.206;2022-12-29T13:04:12;3.10;;;1.25;;
7969;SDS011;4030;52.362;9.206;2022-12-29T13:15:57;4.40;;;1.92;;
7969;SDS011;4030;52.362;9.206;2022-12-29T13:24:15;3.20;;;1.75;;
7969;SDS011;4030;52.362;9.206;2022-12-29T13:27:16;3.65;;;1.40;;
7969;SDS011;4030;52.362;9.206;2022-12-29T13:30:10;4.45;;;1.25;;
7969;SDS011;4030;52.362;9.206;2022-12-29T13:35:41;3.65;;;1.20;;
7969;SDS011;4030;52.362;9.206;2022-12-29T13:38:19;3.35;;;1.25;;
7969;SDS011;4030;52.362;9.206;2022-12-29T13:40:59;4.03;;;1.38;;
7969;SDS011;4030;52.362;9.206;2022-12-29T13:43:31;2.55;;;1.10;;
7969;SDS011;4030;52.362;9.206;2022-12-29T13:46:09;3.25;;;1.38;;
7969;SDS011;4030;52.362;9.206;2022-12-29T13:48:43;3.83;;;1.58;;
7969;SDS011;4030;52.362;9.206;2022-12-29T13:51:19;4.00;;;1.73;;
7969;SDS011;4030;52.362;9.206;2022-12-29T13:56:39;5.15;;;1.60;;
7969;SDS011;4030;52.362;9.206;2022-12-29T13:59:40;3.55;;;1.45;;
7969;SDS011;4030;52.362;9.206;2022-12-29T14:02:36;4.50;;;1.20;;
7969;SDS011;4030;52.362;9.206;2022-12-29T14:07:47;4.07;;;1.40;;
7969;SDS011;4030;52.362;9.206;2022-12-29T14:13:04;5.43;;;1.40;;
7969;SDS011;4030;52.362;9.206;2022-12-29T14:15:40;4.13;;;1.27;;
7969;SDS011;4030;52.362;9.206;2022-12-29T14:18:11;3.28;;;1.65;;
7969;SDS011;4030;52.362;9.206;2022-12-29T14:28:33;3.15;;;1.10;;
7969;SDS011;4030;52.362;9.206;2022-12-29T14:36:35;2.75;;;1.20;;
7969;SDS011;4030;52.362;9.206;2022-12-29T14:44:48;2.38;;;1.15;;
7969;SDS011;4030;52.362;9.206;2022-12-29T14:47:34;3.42;;;1.20;;
7969;SDS011;4030;52.362;9.206;2022-12-29T14:50:06;3.50;;;1.35;;
7969;SDS011;4030;52.362;9.206;2022-12-29T14:52:49;2.35;;;0.98;;
7969;SDS011;4030;52.362;9.206;2022-12-29T14:58:02;3.15;;;1.20;;
7969;SDS011;4030;52.362;9.206;2022-12-29T15:00:32;2.53;;;1.05;;
7969;SDS011;4030;52.362;9.206;2022-12-29T15:03:14;2.35;;;1.10;;
7969;SDS011;4030;52.362;9.206;2022-12-29T15:06:05;2.75;;;1.05;;
7969;SDS011;4030;52.362;9.206;2022-12-29T15:08:47;3.15;;;1.15;;
7969;SDS011;4030;52.362;9.206;2022-12-29T15:11:18;3.13;;;1.08;;
7969;SDS011;4030;52.362;9.206;2022-12-29T15:13:47;3.00;;;1.08;;
7969;SDS011;4030;52.362;9.206;2022-12-29T15:16:30;2.65;;;1.05;;
7969;SDS011;4030;52.362;9.206;2022-12-29T15:19:00;3.38;;;1.08;;
7969;SDS011;4030;52.362;9.206;2022-12-29T15:21:31;2.70;;;1.10;;
7969;SDS011;4030;52.362;9.206;2022-12-29T15:24:00;3.90;;;1.30;;
7969;SDS011;4030;52.362;9.206;2022-12-29T15:26:39;3.85;;;1.23;;
7969;SDS011;4030;52.362;9.206;2022-12-29T15:32:15;2.95;;;1.23;;
7969;SDS011;4030;52.362;9.206;2022-12-29T15:34:43;3.13;;;1.40;;
7969;SDS011;4030;52.362;9.206;2022-12-29T15:37:16;4.00;;;1.52;;
7969;SDS011;4030;52.362;9.206;2022-12-29T15:39:52;3.50;;;1.25;;
7969;SDS011;4030;52.362;9.206;2022-12-29T15:42:41;4.45;;;1.52;;
7969;SDS011;4030;52.362;9.206;2022-12-29T15:45:18;5.45;;;1.30;;
7969;SDS011;4030;52.362;9.206;2022-12-29T15:47:44;6.50;;;1.55;;
7969;SDS011;4030;52.362;9.206;2022-12-29T15:52:42;7.53;;;1.63;;
7969;SDS011;4030;52.362;9.206;2022-12-29T15:55:17;4.72;;;1.70;;
7969;SDS011;4030;52.362;9.206;2022-12-29T15:57:57;8.18;;;1.90;;
7969;SDS011;4030;52.362;9.206;2022-12-29T16:00:32;4.60;;;1.55;;
7969;SDS011;4030;52.362;9.206;2022-12-29T16:03:02;4.40;;;1.45;;
7969;SDS011;4030;52.362;9.206;2022-12-29T16:05:33;5.57;;;1.70;;
7969;SDS011;4030;52.362;9.206;2022-12-29T16:08:02;5.78;;;1.50;;
7969;SDS011;4030;52.362;9.206;2022-12-29T16:10:41;4.43;;;1.40;;
7969;SDS011;4030;52.362;9.206;2022-12-29T16:15:44;6.43;;;1.90;;
7969;SDS011;4030;52.362;9.206;2022-12-29T16:18:24;4.13;;;1.38;;
7969;SDS011;4030;52.362;9.206;2022-12-29T16:20:59;3.10;;;1.40;;
7969;SDS011;4030;52.362;9.206;2022-12-29T16:23:26;4.78;;;1.80;;
7969;SDS011;4030;52.362;9.206;2022-12-29T16:25:54;3.85;;;1.60;;
7969;SDS011;4030;52.362;9.206;2022-12-29T16:28:34;3.05;;;1.38;;
7969;SDS011;4030;52.362;9.206;2022-12-29T16:31:15;5.95;;;1.50;;
7969;SDS011;4030;52.362;9.206;2022-12-29T16:33:48;2.85;;;1.40;;
7969;SDS011;4030;52.362;9.206;2022-12-29T16:36:23;4.38;;;1.40;;
7969;SDS011;4030;52.362;9.206;2022-12-29T16:39:09;2.63;;;1.30;;
7969;SDS011;4030;52.362;9.206;2022-12-29T16:41:51;3.97;;;1.70;;
7969;SDS011;4030;52.362;9.206;2022-12-29T16:44:20;5.72;;;1.70;;
7969;SDS011;4030;52.362;9.206;2022-12-29T16:47:04;3.88;;;1.42;;
7969;SDS011;4030;52.362;9.206;2022-12-29T16:49:37;5.10;;;1.65;;
7969;SDS011;4030;52.362;9.206;2022-12-29T16:52:13;3.30;;;1.60;;
7969;SDS011;4030;52.362;9.206;2022-12-29T16:54:49;4.75;;;1.92;;
7969;SDS011;4030;52.362;9.206;2022-12-29T16:57:25;4.43;;;1.70;;
7969;SDS011;4030;52.362;9.206;2022-12-29T16:59:58;4.38;;;1.88;;
7969;SDS011;4030;52.362;9.206;2022-12-29T17:02:29;5.85;;;1.95;;
7969;SDS011;4030;52.362;9.206;2022-12-29T17:04:56;4.38;;;2.35;;
7969;SDS011;4030;52.362;9.206;2022-12-29T17:07:23;3.97;;;2.65;;
7969;SDS011;4030;52.362;9.206;2022-12-29T17:09:51;7.05;;;2.78;;
7969;SDS011;4030;52.362;9.206;2022-12-29T17:12:24;6.32;;;2.60;;
7969;SDS011;4030;52.362;9.206;2022-12-29T17:19:59;6.85;;;2.60;;
7969;SDS011;4030;52.362;9.206;2022-12-29T17:22:29;5.45;;;2.50;;
7969;SDS011;4030;52.362;9.206;2022-12-29T17:24:57;5.60;;;2.47;;
7969;SDS011;4030;52.362;9.206;2022-12-29T17:27:35;4.18;;;2.30;;
7969;SDS011;4030;52.362;9.206;2022-12-29T17:30:11;3.97;;;2.10;;
7969;SDS011;4030;52.362;9.206;2022-12-29T17:32:40;5.38;;;2.20;;
7969;SDS011;4030;52.362;9.206;2022-12-29T17:35:17;4.65;;;2.25;;
7969;SDS011;4030;52.362;9.206;2022-12-29T17:37:46;3.47;;;1.98;;
7969;SDS011;4030;52.362;9.206;2022-12-29T17:40:16;4.00;;;2.03;;
7969;SDS011;4030;52.362;9.206;2022-12-29T17:42:49;4.18;;;2.03;;
7969;SDS011;4030;52.362;9.206;2022-12-29T17:45:38;4.22;;;2.10;;
7969;SDS011;4030;52.362;9.206;2022-12-29T17:48:08;3.53;;;1.70;;
7969;SDS011;4030;52.362;9.206;2022-12-29T17:50:37;4.85;;;2.13;;
7969;SDS011;4030;52.362;9.206;2022-12-29T17:53:04;3.38;;;1.73;;
7969;SDS011;4030;52.362;9.206;2022-12-29T17:55:35;2.83;;;1.60;;
7969;SDS011;4030;52.362;9.206;2022-12-29T17:58:07;4.65;;;1.80;;
7969;SDS011;4030;52.362;9.206;2022-12-29T18:00:39;2.65;;;1.55;;
7969;SDS011;4030;52.362;9.206;2022-12-29T18:03:05;4.03;;;1.50;;
7969;SDS011;4030;52.362;9.206;2022-12-29T18:05:33;3.08;;;1.50;;
7969;SDS011;4030;52.362;9.206;2022-12-29T18:07:58;3.25;;;1.40;;
7969;SDS011;4030;52.362;9.206;2022-12-29T18:10:26;4.60;;;1.60;;
7969;SDS011;4030;52.362;9.206;2022-12-29T18:12:55;3.55;;;1.58;;
7969;SDS011;4030;52.362;9.206;2022-12-29T18:15:25;2.50;;;1.40;;